Altius — YJTU4 — position and weather

sailwx.info

Track history (hours):
 
Tides and Currents Weather Stations Pressure Air Temp Water Temp Dewpoint Dewpoint Depression Visibility Wind Speed Wind Dir Waves Ship Positions

Altius

Last reported at 2017-Oct-17 19:11 UTC. Time now 2017-Oct-19 00:21 UTC.
Position N 40°53' E 028°34'.

Length 73 m; draft 3.6 m.

Type: Cargo ship. MMSI: 577249000.

Date/timePositionNaut miles runAvg speedWind from/ knotsBaromVisibWave heightAir tempDewpointWater temp
2017-Oct-17 19:11N 40°53' E 028°34'1 8.6
2017-Oct-17 19:00N 40°53' E 028°36'5 8.4
2017-Oct-17 18:22N 40°53' E 028°43'3 8.5
2017-Oct-17 18:01N 40°51' E 028°47'5 8.4
2017-Oct-17 17:22N 40°49' E 028°53'3 9.4
2017-Oct-17 17:00N 40°50' E 028°58'4 8.8
2017-Oct-17 16:30N 40°50' E 029°04'4 8.8
2017-Oct-17 16:01N 40°50' E 029°09'3 5.3
2017-Oct-17 15:31N 40°53' E 029°11'0 0.0
2017-Oct-17 15:00N 40°53' E 029°11'0 0.0
2017-Oct-17 14:30N 40°53' E 029°11'0 0.0
2017-Oct-17 14:00N 40°52' E 029°11'0 0.0
2017-Oct-17 13:30N 40°53' E 029°11'0 0.0
2017-Oct-17 13:00N 40°53' E 029°11'0 0.0
2017-Oct-17 12:30N 40°53' E 029°11'0 0.0
2017-Oct-17 12:00N 40°53' E 029°11'0 0.0
2017-Oct-17 11:30N 40°53' E 029°11'0 0.0
2017-Oct-17 11:00N 40°53' E 029°11'0 0.0
2017-Oct-17 10:29N 40°53' E 029°11'0 0.0
2017-Oct-17 10:00N 40°53' E 029°11'0 0.0
2017-Oct-17 09:30N 40°53' E 029°11'0 0.0
2017-Oct-17 09:00N 40°53' E 029°11'0 0.1
2017-Oct-17 08:30N 40°53' E 029°11'0 0.1
2017-Oct-17 08:00N 40°52' E 029°11'0 0.0
2017-Oct-17 07:30N 40°52' E 029°11'0 0.0
2017-Oct-17 07:00N 40°52' E 029°11'0 0.0
2017-Oct-17 06:30N 40°52' E 029°11'0 0.0
2017-Oct-17 06:00N 40°53' E 029°11'0 0.0
2017-Oct-17 05:30N 40°53' E 029°11'0 0.0
2017-Oct-17 05:00N 40°52' E 029°11'0 0.0
2017-Oct-17 04:30N 40°52' E 029°11'0 0.0
2017-Oct-17 04:00N 40°52' E 029°11'0 0.0
2017-Oct-17 03:30N 40°52' E 029°11'0 0.0
2017-Oct-17 03:00N 40°52' E 029°11'0 0.5
2017-Oct-17 02:29N 40°52' E 029°11'3 6.3
2017-Oct-17 02:00N 40°50' E 029°08'5 8.1
2017-Oct-17 01:24N 40°51' E 029°02'4 8.4
2017-Oct-17 00:57N 40°52' E 028°57'7 1.9
2017-Oct-16 21:25N 40°59' E 028°59'  
2017-Oct-14 07:53N 45°10' E 036°28'3 8.6
2017-Oct-14 07:30N 45°13' E 036°28'4 7.2
2017-Oct-14 07:00N 45°16' E 036°28'3 7.1
2017-Oct-14 06:30N 45°19' E 036°32'4 8.3
2017-Oct-14 06:00N 45°21' E 036°37'4 7.8
2017-Oct-14 05:30N 45°24' E 036°40'4 8.0
2017-Oct-14 05:00N 45°28' E 036°39'3 0.3
2017-Oct-13 19:02N 45°30' E 036°36'0 0.0
2017-Oct-13 18:02N 45°30' E 036°36'0 0.0
2017-Oct-13 17:59N 45°30' E 036°36'0 0.0
2017-Oct-13 17:14N 45°30' E 036°36'0 0.0
2017-Oct-13 16:56N 45°30' E 036°36'0 0.0
2017-Oct-12 14:40N 45°30' E 036°36'0 0.0
2017-Oct-12 14:22N 45°30' E 036°36'0 0.0
2017-Oct-12 13:52N 45°30' E 036°36'0 0.0
2017-Oct-12 13:19N 45°30' E 036°36'0 0.0
2017-Oct-12 09:16N 45°30' E 036°36'0 0.0
2017-Oct-12 08:55N 45°30' E 036°36'0 0.0
2017-Oct-12 07:01N 45°30' E 036°36'0 0.0
2017-Oct-11 20:43N 45°30' E 036°36'0 0.0
2017-Oct-11 18:10N 45°30' E 036°36'0 0.0
2017-Oct-11 18:01N 45°30' E 036°36'  
Track history (hours):
 
Tides and Currents Weather Stations Pressure Air Temp Water Temp Dewpoint Dewpoint Depression Visibility Wind Speed Wind Dir Waves Ship Positions

Altius

Last reported at 2017-Oct-17 19:11 UTC. Time now 2017-Oct-19 00:21 UTC.
Position N 40°53' E 028°34'.

Length 73 m; draft 3.6 m.

Type: Cargo ship. MMSI: 577249000.

Date/timePositionNaut miles runAvg speedWind from/ knotsBaromVisibWave heightAir tempDewpointWater temp
2017-Oct-17 19:11N 40°53' E 028°34'1 8.6
2017-Oct-17 19:00N 40°53' E 028°36'5 8.4
2017-Oct-17 18:22N 40°53' E 028°43'3 8.5
2017-Oct-17 18:01N 40°51' E 028°47'5 8.4
2017-Oct-17 17:22N 40°49' E 028°53'3 9.4
2017-Oct-17 17:00N 40°50' E 028°58'4 8.8
2017-Oct-17 16:30N 40°50' E 029°04'4 8.8
2017-Oct-17 16:01N 40°50' E 029°09'3 5.3
2017-Oct-17 15:31N 40°53' E 029°11'0 0.0
2017-Oct-17 15:00N 40°53' E 029°11'0 0.0
2017-Oct-17 14:30N 40°53' E 029°11'0 0.0
2017-Oct-17 14:00N 40°52' E 029°11'0 0.0
2017-Oct-17 13:30N 40°53' E 029°11'0 0.0
2017-Oct-17 13:00N 40°53' E 029°11'0 0.0
2017-Oct-17 12:30N 40°53' E 029°11'0 0.0
2017-Oct-17 12:00N 40°53' E 029°11'0 0.0
2017-Oct-17 11:30N 40°53' E 029°11'0 0.0
2017-Oct-17 11:00N 40°53' E 029°11'0 0.0
2017-Oct-17 10:29N 40°53' E 029°11'0 0.0
2017-Oct-17 10:00N 40°53' E 029°11'0 0.0
2017-Oct-17 09:30N 40°53' E 029°11'0 0.0
2017-Oct-17 09:00N 40°53' E 029°11'0 0.1
2017-Oct-17 08:30N 40°53' E 029°11'0 0.1
2017-Oct-17 08:00N 40°52' E 029°11'0 0.0
2017-Oct-17 07:30N 40°52' E 029°11'0 0.0
2017-Oct-17 07:00N 40°52' E 029°11'0 0.0
2017-Oct-17 06:30N 40°52' E 029°11'0 0.0
2017-Oct-17 06:00N 40°53' E 029°11'0 0.0
2017-Oct-17 05:30N 40°53' E 029°11'0 0.0
2017-Oct-17 05:00N 40°52' E 029°11'0 0.0
2017-Oct-17 04:30N 40°52' E 029°11'0 0.0
2017-Oct-17 04:00N 40°52' E 029°11'0 0.0
2017-Oct-17 03:30N 40°52' E 029°11'0 0.0
2017-Oct-17 03:00N 40°52' E 029°11'0 0.5
2017-Oct-17 02:29N 40°52' E 029°11'3 6.3
2017-Oct-17 02:00N 40°50' E 029°08'5 8.1
2017-Oct-17 01:24N 40°51' E 029°02'4 8.4
2017-Oct-17 00:57N 40°52' E 028°57'7 1.9
2017-Oct-16 21:25N 40°59' E 028°59'  
2017-Oct-14 07:53N 45°10' E 036°28'3 8.6
2017-Oct-14 07:30N 45°13' E 036°28'4 7.2
2017-Oct-14 07:00N 45°16' E 036°28'3 7.1
2017-Oct-14 06:30N 45°19' E 036°32'4 8.3
2017-Oct-14 06:00N 45°21' E 036°37'4 7.8
2017-Oct-14 05:30N 45°24' E 036°40'4 8.0
2017-Oct-14 05:00N 45°28' E 036°39'3 0.3
2017-Oct-13 19:02N 45°30' E 036°36'0 0.0
2017-Oct-13 18:02N 45°30' E 036°36'0 0.0
2017-Oct-13 17:59N 45°30' E 036°36'0 0.0
2017-Oct-13 17:14N 45°30' E 036°36'0 0.0
2017-Oct-13 16:56N 45°30' E 036°36'0 0.0
2017-Oct-12 14:40N 45°30' E 036°36'0 0.0
2017-Oct-12 14:22N 45°30' E 036°36'0 0.0
2017-Oct-12 13:52N 45°30' E 036°36'0 0.0
2017-Oct-12 13:19N 45°30' E 036°36'0 0.0
2017-Oct-12 09:16N 45°30' E 036°36'0 0.0
2017-Oct-12 08:55N 45°30' E 036°36'0 0.0
2017-Oct-12 07:01N 45°30' E 036°36'0 0.0
2017-Oct-11 20:43N 45°30' E 036°36'0 0.0
2017-Oct-11 18:10N 45°30' E 036°36'0 0.0
2017-Oct-11 18:01N 45°30' E 036°36'  

Dump ship's entire track history